createdAt,value
2023-05-01T00:01:00.950Z,38.400002
2023-05-01T00:02:09.548Z,39.200001
2023-05-01T00:03:17.954Z,39.200001
2023-05-01T00:04:26.285Z,39.200001
2023-05-01T00:05:34.817Z,39.599998
2023-05-01T00:06:43.217Z,39.599998
2023-05-01T00:07:51.511Z,39.599998
2023-05-01T00:09:00.061Z,42.5
2023-05-01T00:10:08.418Z,42.5
2023-05-01T00:11:16.772Z,42.5
2023-05-01T00:12:25.356Z,43.200001
2023-05-01T00:13:33.692Z,43.200001
2023-05-01T00:14:42.070Z,43.200001
2023-05-01T00:15:50.611Z,44.299999
2023-05-01T00:16:59.045Z,44.299999
2023-05-01T00:18:07.401Z,44.299999
2023-05-01T00:19:15.909Z,45.400002
2023-05-01T00:20:24.268Z,45.400002
2023-05-01T00:21:32.622Z,45.400002
2023-05-01T00:22:41.175Z,44.5
2023-05-01T00:23:49.517Z,44.5
2023-05-01T00:24:57.849Z,44.5
2023-05-01T00:26:06.438Z,44.599998
2023-05-01T00:27:14.794Z,44.599998
2023-05-01T00:28:23.136Z,44.599998
2023-05-01T00:29:31.674Z,43.299999
2023-05-01T00:30:40.021Z,43.299999
2023-05-01T00:31:48.505Z,43.299999
2023-05-01T00:32:57.032Z,42.700001
2023-05-01T00:34:05.312Z,42.700001
2023-05-01T00:35:13.674Z,42.700001
2023-05-01T00:36:22.227Z,45
2023-05-01T00:37:30.561Z,45
2023-05-01T00:38:38.904Z,45
2023-05-01T00:39:47.458Z,46.200001
2023-05-01T00:40:55.812Z,46.200001
2023-05-01T00:42:04.182Z,46.200001
2023-05-01T00:43:12.749Z,47.299999
2023-05-01T00:44:21.045Z,47.299999
2023-05-01T00:45:29.472Z,47.299999
2023-05-01T00:46:37.978Z,45.5
2023-05-01T00:47:46.379Z,45.5
2023-05-01T00:48:54.667Z,45.5
2023-05-01T00:50:03.226Z,45.799999
2023-05-01T00:51:11.584Z,45.799999
2023-05-01T00:52:19.972Z,45.799999
2023-05-01T00:53:28.504Z,43.900002
2023-05-01T00:54:36.842Z,43.900002
2023-05-01T00:55:45.224Z,43.900002
2023-05-01T00:56:53.768Z,44.799999
2023-05-01T00:58:02.132Z,44.799999
2023-05-01T00:59:10.453Z,44.799999
2023-05-01T01:00:18.989Z,43.799999
2023-05-01T01:01:27.378Z,43.799999
2023-05-01T01:02:35.718Z,43.799999
2023-05-01T01:03:44.277Z,44.599998
2023-05-01T01:04:52.644Z,44.599998
2023-05-01T01:06:00.985Z,44.599998
2023-05-01T01:07:09.508Z,43.700001
2023-05-01T01:08:17.885Z,43.700001
2023-05-01T01:09:26.215Z,43.700001
2023-05-01T01:10:34.796Z,43.5
2023-05-01T01:11:43.126Z,43.5
2023-05-01T01:12:51.471Z,43.5
2023-05-01T01:14:00.064Z,42.099998
2023-05-01T01:15:08.373Z,42.099998
2023-05-01T01:16:16.728Z,42.099998
2023-05-01T01:17:25.281Z,42.299999
2023-05-01T01:18:33.605Z,42.299999
2023-05-01T01:19:41.948Z,42.299999
2023-05-01T01:20:50.500Z,41.299999
2023-05-01T01:21:58.843Z,41.299999
2023-05-01T01:23:07.179Z,41.299999
2023-05-01T01:24:15.729Z,41.400002
2023-05-01T01:25:24.084Z,41.400002
2023-05-01T01:26:32.432Z,41.400002
2023-05-01T01:27:41.008Z,40.599998
2023-05-01T01:28:49.368Z,40.599998
2023-05-01T01:29:58.139Z,40.599998
2023-05-01T01:31:06.333Z,39.700001
2023-05-01T01:32:14.626Z,39.700001
2023-05-01T01:33:22.948Z,39.700001
2023-05-01T01:34:31.503Z,41.099998
2023-05-01T01:35:39.857Z,41.099998
2023-05-01T01:36:48.205Z,41.099998
2023-05-01T01:37:56.764Z,40.200001
2023-05-01T01:39:05.112Z,40.200001
2023-05-01T01:40:13.453Z,40.200001
2023-05-01T01:41:22.013Z,41.799999
2023-05-01T01:42:30.351Z,41.799999
2023-05-01T01:43:38.707Z,41.799999
2023-05-01T01:44:47.270Z,40.5
2023-05-01T01:45:55.657Z,40.5
2023-05-01T01:47:03.931Z,40.5
2023-05-01T01:48:12.544Z,39.5
2023-05-01T01:49:21.105Z,39.5
2023-05-01T01:50:29.175Z,39.5
2023-05-01T01:51:37.733Z,41
2023-05-01T01:52:46.089Z,41
2023-05-01T01:53:54.438Z,41
2023-05-01T01:55:02.990Z,41.299999
2023-05-01T01:56:11.353Z,41.299999
2023-05-01T01:57:19.721Z,41.299999
2023-05-01T01:58:28.242Z,39.900002
2023-05-01T01:59:36.618Z,39.900002
2023-05-01T02:00:44.974Z,39.900002
2023-05-01T02:01:53.629Z,40.400002
2023-05-01T02:03:01.918Z,40.400002
2023-05-01T02:04:10.294Z,40.400002
2023-05-01T02:05:18.778Z,40.900002
2023-05-01T02:06:27.227Z,40.900002
2023-05-01T02:07:35.466Z,40.900002
2023-05-01T02:08:44.011Z,37.5
2023-05-01T02:09:52.347Z,37.5
2023-05-01T02:11:01.915Z,37.5
2023-05-01T02:12:09.245Z,37.900002
2023-05-01T02:13:17.595Z,37.900002
2023-05-01T02:14:25.956Z,37.900002
2023-05-01T02:15:34.522Z,36.900002
2023-05-01T02:16:42.903Z,36.900002
2023-05-01T02:17:51.306Z,36.900002
2023-05-01T02:18:59.769Z,35
2023-05-01T02:20:08.108Z,35
2023-05-01T02:21:16.459Z,35
2023-05-01T02:22:24.992Z,33.299999
2023-05-01T02:23:33.349Z,33.299999
2023-05-01T02:24:41.695Z,33.299999
2023-05-01T02:25:50.271Z,32.400002
2023-05-01T02:26:58.604Z,32.400002
2023-05-01T02:28:06.963Z,32.400002
2023-05-01T02:29:15.504Z,29.9
2023-05-01T02:30:23.852Z,29.9
2023-05-01T02:31:32.271Z,29.9
2023-05-01T02:32:40.801Z,28.700001
2023-05-01T02:33:49.150Z,28.700001
2023-05-01T02:34:57.471Z,28.700001
2023-05-01T02:36:06.030Z,28
2023-05-01T02:37:14.410Z,28
2023-05-01T02:38:22.726Z,28
2023-05-01T02:39:31.267Z,27.299999
2023-05-01T02:40:39.631Z,27.299999
2023-05-01T02:41:47.973Z,27.299999
2023-05-01T02:42:56.522Z,27.5
2023-05-01T02:44:04.876Z,27.5
2023-05-01T02:45:13.213Z,27.5
2023-05-01T02:46:21.841Z,26.5
2023-05-01T02:47:30.168Z,26.5
2023-05-01T02:48:38.475Z,26.5
2023-05-01T02:49:47.064Z,26.1
2023-05-01T02:50:55.362Z,26.1
2023-05-01T02:52:03.705Z,26.1
2023-05-01T02:53:12.267Z,25.5
2023-05-01T02:54:20.607Z,25.5
2023-05-01T02:55:28.946Z,25.5
2023-05-01T02:56:37.499Z,27.299999
2023-05-01T02:57:45.844Z,27.299999
2023-05-01T02:58:54.177Z,27.299999
2023-05-01T03:00:02.733Z,27.700001
2023-05-01T03:01:11.105Z,27.700001
2023-05-01T03:02:19.459Z,27.700001
2023-05-01T03:03:28.050Z,26.200001
2023-05-01T03:04:36.407Z,26.200001
2023-05-01T03:05:44.718Z,26.200001
2023-05-01T03:06:53.243Z,25.9
2023-05-01T03:08:01.558Z,25.9
2023-05-01T03:09:09.919Z,25.9
2023-05-01T03:10:18.492Z,25.200001
2023-05-01T03:11:26.838Z,25.200001
2023-05-01T03:12:35.181Z,25.200001
2023-05-01T03:13:43.751Z,26.700001
2023-05-01T03:14:52.081Z,26.700001
2023-05-01T03:16:00.517Z,26.700001
2023-05-01T03:17:08.992Z,28
2023-05-01T03:18:17.341Z,28
2023-05-01T03:19:25.676Z,28
2023-05-01T03:20:34.310Z,24.299999
2023-05-01T03:21:42.703Z,24.299999
2023-05-01T03:22:50.917Z,24.299999
2023-05-01T03:23:59.479Z,24
2023-05-01T03:25:07.835Z,24
2023-05-01T03:26:16.187Z,24
2023-05-01T03:27:24.714Z,24.4
2023-05-01T03:28:33.059Z,24.4
2023-05-01T03:29:41.408Z,24.4
2023-05-01T03:30:49.960Z,24.299999
2023-05-01T03:31:58.389Z,24.299999
2023-05-01T03:33:06.666Z,24.299999
2023-05-01T03:34:15.207Z,22.700001
2023-05-01T03:35:23.632Z,22.700001
2023-05-01T03:36:31.917Z,22.700001
2023-05-01T03:37:40.477Z,22.200001
2023-05-01T03:38:48.795Z,22.200001
2023-05-01T03:39:57.309Z,22.200001
2023-05-01T03:41:05.702Z,21.1
2023-05-01T03:42:14.060Z,21.1
2023-05-01T03:43:22.384Z,21.1
2023-05-01T03:44:30.944Z,21.200001
2023-05-01T03:45:39.364Z,21.200001
2023-05-01T03:46:47.689Z,21.200001
2023-05-01T03:47:56.261Z,22
2023-05-01T03:49:04.541Z,22
2023-05-01T03:50:12.891Z,22
2023-05-01T03:51:21.452Z,21.5
2023-05-01T03:52:29.792Z,21.5
2023-05-01T03:53:38.149Z,21.5
2023-05-01T03:54:46.698Z,20.799999
2023-05-01T03:55:55.035Z,20.799999
2023-05-01T03:57:03.376Z,20.799999
2023-05-01T03:58:11.953Z,19.9
2023-05-01T03:59:20.373Z,19.9
2023-05-01T04:00:28.703Z,19.9
2023-05-01T04:01:37.258Z,19.6
2023-05-01T04:02:45.791Z,19.6
2023-05-01T04:03:54.056Z,19.6
2023-05-01T04:05:02.499Z,17.6
2023-05-01T04:06:10.889Z,17.6
2023-05-01T04:07:19.166Z,17.6
2023-05-01T04:08:27.735Z,17
2023-05-01T04:09:36.107Z,17
2023-05-01T04:10:44.453Z,17
2023-05-01T04:11:53.005Z,16
2023-05-01T04:13:01.369Z,16
2023-05-01T04:14:09.754Z,16
2023-05-01T04:15:18.313Z,15
2023-05-01T04:16:26.664Z,15
2023-05-01T04:17:35.007Z,15
2023-05-01T04:18:43.557Z,15
2023-05-01T04:19:51.899Z,15
2023-05-01T04:21:00.260Z,15
2023-05-01T04:22:08.815Z,13.4
2023-05-01T04:23:17.148Z,13.4
2023-05-01T04:24:25.494Z,13.4
2023-05-01T04:25:34.101Z,13.9
2023-05-01T04:26:42.395Z,13.9
2023-05-01T04:27:50.734Z,13.9
2023-05-01T04:28:59.279Z,12.8
2023-05-01T04:30:07.641Z,12.8
2023-05-01T04:31:16.036Z,12.8
2023-05-01T04:32:24.552Z,11.9
2023-05-01T04:33:32.862Z,11.9
2023-05-01T04:34:41.225Z,11.9
2023-05-01T04:35:49.767Z,11.7
2023-05-01T04:36:58.122Z,11.7
2023-05-01T04:38:06.454Z,11.7
2023-05-01T04:39:15.024Z,11.5
2023-05-01T04:40:23.364Z,11.5
2023-05-01T04:41:31.720Z,11.5
2023-05-01T04:42:40.255Z,11.7
2023-05-01T04:43:48.601Z,11.7
2023-05-01T04:44:56.946Z,11.7
2023-05-01T04:46:05.592Z,10.6
2023-05-01T04:47:13.876Z,10.6
2023-05-01T04:48:22.428Z,10.6
2023-05-01T04:49:30.775Z,10.7
2023-05-01T04:50:39.134Z,10.7
2023-05-01T04:51:47.461Z,10.7
2023-05-01T04:52:56.010Z,10.7
2023-05-01T04:54:04.384Z,10.7
2023-05-01T04:55:12.721Z,10.7
2023-05-01T04:56:21.263Z,10.2
2023-05-01T04:57:29.643Z,10.2
2023-05-01T04:58:37.945Z,10.2
2023-05-01T04:59:46.526Z,10.6
2023-05-01T05:00:54.882Z,10.6
2023-05-01T05:02:03.377Z,10.6
2023-05-01T05:03:11.837Z,9.9
2023-05-01T05:04:20.121Z,9.9
2023-05-01T05:05:28.460Z,9.9
2023-05-01T05:06:37.160Z,10.6
2023-05-01T05:07:45.377Z,10.6
2023-05-01T05:08:53.723Z,10.6
2023-05-01T05:10:02.290Z,9.8
2023-05-01T05:11:10.637Z,9.8
2023-05-01T05:12:18.956Z,9.8
2023-05-01T05:13:27.516Z,10.1
2023-05-01T05:14:35.851Z,10.1
2023-05-01T05:15:44.192Z,10.1
2023-05-01T05:16:52.824Z,9.9
2023-05-01T05:18:01.084Z,9.9
2023-05-01T05:19:09.431Z,9.9
2023-05-01T05:20:17.995Z,9.6
2023-05-01T05:21:26.329Z,9.6
2023-05-01T05:22:34.694Z,9.6
2023-05-01T05:23:43.254Z,9.7
2023-05-01T05:24:51.595Z,9.7
2023-05-01T05:25:59.933Z,9.7
2023-05-01T05:27:08.505Z,9.8
2023-05-01T05:28:16.850Z,9.8
2023-05-01T05:29:25.236Z,9.8
2023-05-01T05:30:33.761Z,9.8
2023-05-01T05:31:42.133Z,9.8
2023-05-01T05:32:50.450Z,9.8
2023-05-01T05:33:59.009Z,10
2023-05-01T05:35:07.337Z,10
2023-05-01T05:36:15.685Z,10
2023-05-01T05:37:24.255Z,10.7
2023-05-01T05:38:32.607Z,10.7
2023-05-01T05:39:40.975Z,10.7
2023-05-01T05:40:49.523Z,9.9
2023-05-01T05:41:57.874Z,9.9
2023-05-01T05:43:06.245Z,9.9
2023-05-01T05:44:14.763Z,9.9
2023-05-01T05:45:23.170Z,9.9
2023-05-01T05:46:31.589Z,9.9
2023-05-01T05:47:40.035Z,10.1
2023-05-01T05:48:48.376Z,10.1
2023-05-01T05:49:56.938Z,10.1
2023-05-01T05:51:05.295Z,9.4
2023-05-01T05:52:13.651Z,9.4
2023-05-01T05:53:23.642Z,9.4
2023-05-01T05:54:30.553Z,9.6
2023-05-01T05:55:38.921Z,9.6
2023-05-01T05:56:47.246Z,9.6
2023-05-01T05:57:55.811Z,9.7
2023-05-01T05:59:04.162Z,9.7
2023-05-01T06:00:12.485Z,9.7
2023-05-01T06:01:21.047Z,10.2
2023-05-01T06:02:29.422Z,10.2
2023-05-01T06:03:37.825Z,10.2
2023-05-01T06:04:46.329Z,10.5
2023-05-01T06:05:54.729Z,10.5
2023-05-01T06:07:03.013Z,10.5
2023-05-01T06:08:11.555Z,10.2
2023-05-01T06:09:19.906Z,10.2
2023-05-01T06:10:28.260Z,10.2
2023-05-01T06:11:36.814Z,10
2023-05-01T06:12:46.319Z,10
2023-05-01T06:13:53.506Z,10
2023-05-01T06:15:02.105Z,10.8
2023-05-01T06:16:10.479Z,10.8
2023-05-01T06:17:18.858Z,10.8
2023-05-01T06:18:27.397Z,10
2023-05-01T06:19:35.793Z,10
2023-05-01T06:20:44.131Z,10
2023-05-01T06:21:52.701Z,10.7
2023-05-01T06:23:01.031Z,10.7
2023-05-01T06:24:09.404Z,10.7
2023-05-01T06:25:17.960Z,10
2023-05-01T06:26:26.310Z,10
2023-05-01T06:27:34.684Z,10
2023-05-01T06:28:43.243Z,10.4
2023-05-01T06:29:51.588Z,10.4
2023-05-01T06:30:59.965Z,10.4
2023-05-01T06:32:08.529Z,10.7
2023-05-01T06:33:16.930Z,10.7
2023-05-01T06:34:25.208Z,10.7
2023-05-01T06:35:33.740Z,10.2
2023-05-01T06:36:42.092Z,10.2
2023-05-01T06:37:50.449Z,10.2
2023-05-01T06:38:59.044Z,10.2
2023-05-01T06:40:07.384Z,10.2
2023-05-01T06:41:15.711Z,10.2
2023-05-01T06:42:24.274Z,10.3
2023-05-01T06:43:32.616Z,10.3
2023-05-01T06:44:40.961Z,10.3
2023-05-01T06:45:49.502Z,10.8
2023-05-01T06:46:57.860Z,10.8
2023-05-01T06:48:06.202Z,10.8
2023-05-01T06:49:14.770Z,10.6
2023-05-01T06:50:23.097Z,10.6
2023-05-01T06:51:31.424Z,10.6
2023-05-01T06:52:39.981Z,10.8
2023-05-01T06:53:48.336Z,10.8
2023-05-01T06:54:56.679Z,10.8
2023-05-01T06:56:05.227Z,11.4
2023-05-01T06:57:13.544Z,11.4
2023-05-01T06:58:23.784Z,11.4
2023-05-01T06:59:30.467Z,11.2
2023-05-01T07:00:38.903Z,11.2
2023-05-01T07:01:47.251Z,11.2
2023-05-01T07:02:55.850Z,11.6
2023-05-01T07:04:04.174Z,11.6
2023-05-01T07:05:12.473Z,11.6
2023-05-01T07:06:20.989Z,10.9
2023-05-01T07:07:29.317Z,10.9
2023-05-01T07:08:37.666Z,10.9
2023-05-01T07:09:46.275Z,11.2
2023-05-01T07:10:54.589Z,11.2
2023-05-01T07:12:02.933Z,11.2
2023-05-01T07:13:11.502Z,10.8
2023-05-01T07:14:20.231Z,10.8
2023-05-01T07:15:28.671Z,10.8
2023-05-01T07:16:37.306Z,10.6
2023-05-01T07:17:45.652Z,10.6
2023-05-01T07:18:53.952Z,10.6
2023-05-01T07:20:02.516Z,11.5
2023-05-01T07:21:10.896Z,11.5
2023-05-01T07:22:19.218Z,11.5
2023-05-01T07:23:27.771Z,11.2
2023-05-01T07:24:36.126Z,11.2
2023-05-01T07:25:44.512Z,11.2
2023-05-01T07:26:53.077Z,10.6
2023-05-01T07:28:01.419Z,10.6
2023-05-01T07:29:09.770Z,10.6
2023-05-01T07:30:18.319Z,10.6
2023-05-01T07:31:26.749Z,10.6
2023-05-01T07:32:35.058Z,10.6
2023-05-01T07:33:43.566Z,10.4
2023-05-01T07:34:51.925Z,10.4
2023-05-01T07:36:00.279Z,10.4
2023-05-01T07:37:08.972Z,10.3
2023-05-01T07:38:17.174Z,10.3
2023-05-01T07:39:25.551Z,10.3
2023-05-01T07:40:34.098Z,10.7
2023-05-01T07:41:42.424Z,10.7
2023-05-01T07:42:52.399Z,10.7
2023-05-01T07:43:59.316Z,11
2023-05-01T07:45:07.684Z,11
2023-05-01T07:46:16.075Z,11
2023-05-01T07:47:24.657Z,10.5
2023-05-01T07:48:32.910Z,10.5
2023-05-01T07:49:41.265Z,10.5
2023-05-01T07:50:49.797Z,10.6
2023-05-01T07:51:58.134Z,10.6
2023-05-01T07:53:06.509Z,10.6
2023-05-01T07:54:15.054Z,10.6
2023-05-01T07:55:23.385Z,10.6
2023-05-01T07:56:31.718Z,10.6
2023-05-01T07:57:40.284Z,9.9
2023-05-01T07:58:48.623Z,9.9
2023-05-01T07:59:57.316Z,9.9
2023-05-01T08:01:05.552Z,9.9
2023-05-01T08:02:13.967Z,9.9
2023-05-01T08:03:22.355Z,9.9
2023-05-01T08:04:30.847Z,10.3
2023-05-01T08:05:39.140Z,10.3
2023-05-01T08:06:47.483Z,10.3
2023-05-01T08:07:56.020Z,9.8
2023-05-01T08:09:04.420Z,9.8
2023-05-01T08:10:12.730Z,9.8
2023-05-01T08:11:21.299Z,9.8
2023-05-01T08:12:29.644Z,9.8
2023-05-01T08:13:37.995Z,9.8
2023-05-01T08:14:46.579Z,9.6
2023-05-01T08:15:54.991Z,9.6
2023-05-01T08:17:03.281Z,9.6
2023-05-01T08:18:11.886Z,8.8
2023-05-01T08:19:20.211Z,8.8
2023-05-01T08:20:28.548Z,8.8
2023-05-01T08:21:37.104Z,8.4
2023-05-01T08:22:45.449Z,8.4
2023-05-01T08:23:53.808Z,8.4
2023-05-01T08:25:02.420Z,8.6
2023-05-01T08:26:10.718Z,8.6
2023-05-01T08:27:19.080Z,8.6
2023-05-01T08:28:27.644Z,8.3
2023-05-01T08:29:36.006Z,8.3
2023-05-01T08:30:44.367Z,8.3
2023-05-01T08:31:52.959Z,8.7
2023-05-01T08:33:01.328Z,8.7
2023-05-01T08:34:09.599Z,8.7
2023-05-01T08:35:18.163Z,8.1
2023-05-01T08:36:26.499Z,8.1
2023-05-01T08:37:34.899Z,8.1
2023-05-01T08:38:43.465Z,8.1
2023-05-01T08:39:51.814Z,8.1
2023-05-01T08:41:00.232Z,8.1
2023-05-01T08:42:08.727Z,8
2023-05-01T08:43:17.081Z,8
2023-05-01T08:44:25.440Z,8
2023-05-01T08:45:33.999Z,7
2023-05-01T08:46:42.400Z,7
2023-05-01T08:47:50.736Z,7
2023-05-01T08:48:59.269Z,7.6
2023-05-01T08:50:07.637Z,7.6
2023-05-01T08:51:15.998Z,7.6
2023-05-01T08:52:24.557Z,7.6
2023-05-01T08:53:32.902Z,7.6
2023-05-01T08:54:41.232Z,7.6
2023-05-01T08:55:49.804Z,7.2
2023-05-01T08:56:58.196Z,7.2
2023-05-01T08:58:06.524Z,7.2
2023-05-01T08:59:15.104Z,7.6
2023-05-01T09:00:23.456Z,7.6
2023-05-01T09:01:31.862Z,7.6
2023-05-01T09:02:40.382Z,7.5
2023-05-01T09:03:48.781Z,7.5
2023-05-01T09:04:57.116Z,7.5
2023-05-01T09:06:05.680Z,7.1
2023-05-01T09:07:14.018Z,7.1
2023-05-01T09:08:22.393Z,7.1
2023-05-01T09:09:30.953Z,6.7
2023-05-01T09:10:39.285Z,6.7
2023-05-01T09:11:47.650Z,6.7
2023-05-01T09:12:56.238Z,7.5
2023-05-01T09:14:04.557Z,7.5
2023-05-01T09:15:12.900Z,7.5
2023-05-01T09:16:21.496Z,6.9
2023-05-01T09:17:29.863Z,6.9
2023-05-01T09:18:38.197Z,6.9
2023-05-01T09:19:46.768Z,6.3
2023-05-01T09:20:55.118Z,6.3
2023-05-01T09:22:03.469Z,6.3
2023-05-01T09:23:12.022Z,6.7
2023-05-01T09:24:20.406Z,6.7
2023-05-01T09:25:28.760Z,6.7
2023-05-01T09:26:37.330Z,6.8
2023-05-01T09:27:45.682Z,6.8
2023-05-01T09:28:54.051Z,6.8
2023-05-01T09:30:02.591Z,6.8
2023-05-01T09:31:10.961Z,6.8
2023-05-01T09:32:19.387Z,6.8
2023-05-01T09:33:27.872Z,6.1
2023-05-01T09:34:36.227Z,6.1
2023-05-01T09:35:44.586Z,6.1
2023-05-01T09:36:53.144Z,6.6
2023-05-01T09:38:01.515Z,6.6
2023-05-01T09:39:09.870Z,6.6
2023-05-01T09:40:18.435Z,6
2023-05-01T09:41:26.963Z,6
2023-05-01T09:42:35.320Z,6
2023-05-01T09:43:43.903Z,6.4
2023-05-01T09:44:52.272Z,6.4
2023-05-01T09:46:00.619Z,6.4
2023-05-01T09:47:09.146Z,6.4
2023-05-01T09:48:17.520Z,6.4
2023-05-01T09:49:25.894Z,6.4
2023-05-01T09:50:34.577Z,6.4
2023-05-01T09:51:42.819Z,6.4
2023-05-01T09:52:51.173Z,6.4
2023-05-01T09:53:59.736Z,5.9
2023-05-01T09:55:08.102Z,5.9
2023-05-01T09:56:16.484Z,5.9
2023-05-01T09:57:24.991Z,5.3
2023-05-01T09:58:33.350Z,5.3
2023-05-01T09:59:41.704Z,5.3
2023-05-01T10:00:50.304Z,5.5
2023-05-01T10:01:58.668Z,5.5
2023-05-01T10:03:08.450Z,5.5
2023-05-01T10:04:15.556Z,5.5
2023-05-01T10:05:23.907Z,5.5
2023-05-01T10:06:32.346Z,5.5
2023-05-01T10:07:40.930Z,4.8
2023-05-01T10:08:49.279Z,4.8
2023-05-01T10:10:00.009Z,4.8
2023-05-01T10:11:06.210Z,4.9
2023-05-01T10:12:14.575Z,4.9
2023-05-01T10:13:22.902Z,4.9
2023-05-01T10:14:31.484Z,4.5
2023-05-01T10:15:39.830Z,4.5
2023-05-01T10:16:48.228Z,4.5
2023-05-01T10:17:56.794Z,4.9
2023-05-01T10:19:05.077Z,4.9
2023-05-01T10:20:13.412Z,4.9
2023-05-01T10:21:22.008Z,5
2023-05-01T10:22:30.293Z,5
2023-05-01T10:23:38.636Z,5
2023-05-01T10:24:47.197Z,5.2
2023-05-01T10:25:55.548Z,5.2
2023-05-01T10:27:03.896Z,5.2
2023-05-01T10:28:12.455Z,4.8
2023-05-01T10:29:20.815Z,4.8
2023-05-01T10:30:29.152Z,4.8
2023-05-01T10:31:38.724Z,4.9
2023-05-01T10:32:46.088Z,4.9
2023-05-01T10:33:54.520Z,4.9
2023-05-01T10:35:03.090Z,4.7
2023-05-01T10:36:11.441Z,4.7
2023-05-01T10:37:19.799Z,4.7
2023-05-01T10:38:28.357Z,4.7
2023-05-01T10:39:36.706Z,4.7
2023-05-01T10:40:45.042Z,4.7
2023-05-01T10:41:53.609Z,4.3
2023-05-01T10:43:01.941Z,4.3
2023-05-01T10:44:10.280Z,4.3
2023-05-01T10:45:18.832Z,4.6
2023-05-01T10:46:27.220Z,4.6
2023-05-01T10:47:35.554Z,4.6
2023-05-01T10:48:44.103Z,4.8
2023-05-01T10:49:52.431Z,4.8
2023-05-01T10:51:00.785Z,4.8
2023-05-01T10:52:09.346Z,4.6
2023-05-01T10:53:17.722Z,4.6
2023-05-01T10:54:26.057Z,4.6
2023-05-01T10:55:34.609Z,4.5
2023-05-01T10:56:43.036Z,4.5
2023-05-01T10:57:51.319Z,4.5
2023-05-01T10:58:59.899Z,4.1
2023-05-01T11:00:08.206Z,4.1
2023-05-01T11:01:16.626Z,4.1
2023-05-01T11:02:25.179Z,4.5
2023-05-01T11:03:33.449Z,4.5
2023-05-01T11:04:41.826Z,4.5
2023-05-01T11:05:50.403Z,4.6
2023-05-01T11:06:58.748Z,4.6
2023-05-01T11:08:07.126Z,4.6
2023-05-01T11:09:15.701Z,4.3
2023-05-01T11:10:24.053Z,4.3
2023-05-01T11:11:32.380Z,4.3
2023-05-01T11:12:40.918Z,4.5
2023-05-01T11:13:49.277Z,4.5
2023-05-01T11:14:58.006Z,4.5
2023-05-01T11:16:06.221Z,4.6
2023-05-01T11:17:14.536Z,4.6
2023-05-01T11:18:22.896Z,4.6
2023-05-01T11:19:31.444Z,4.3
2023-05-01T11:20:39.830Z,4.3
2023-05-01T11:21:48.150Z,4.3
2023-05-01T11:22:56.738Z,4.5
2023-05-01T11:24:05.106Z,4.5
2023-05-01T11:25:13.446Z,4.5
2023-05-01T11:26:22.008Z,4.2
2023-05-01T11:27:30.349Z,4.2
2023-05-01T11:28:38.674Z,4.2
2023-05-01T11:29:47.259Z,4.1
2023-05-01T11:30:55.577Z,4.1
2023-05-01T11:32:03.946Z,4.1
2023-05-01T11:33:12.537Z,4.1
2023-05-01T11:34:20.830Z,4.1
2023-05-01T11:35:29.215Z,4.1
2023-05-01T11:36:37.790Z,4.4
2023-05-01T11:37:46.109Z,4.4
2023-05-01T11:38:54.493Z,4.4
2023-05-01T11:40:03.082Z,4.5
2023-05-01T11:41:11.419Z,4.5
2023-05-01T11:42:19.775Z,4.5
2023-05-01T11:43:28.317Z,4.3
2023-05-01T11:44:36.688Z,4.3
2023-05-01T11:45:45.047Z,4.3
2023-05-01T11:46:53.626Z,4.1
2023-05-01T11:48:04.043Z,4.1
2023-05-01T11:49:10.365Z,4.1
2023-05-01T11:50:18.932Z,4.3
2023-05-01T11:51:27.270Z,4.3
2023-05-01T11:52:35.701Z,4.3
2023-05-01T11:53:44.237Z,4.7
2023-05-01T11:54:52.619Z,4.7
2023-05-01T11:56:01.028Z,4.7
2023-05-01T11:57:09.549Z,4.6
2023-05-01T11:58:17.920Z,4.6
2023-05-01T11:59:26.275Z,4.6
2023-05-01T12:00:34.821Z,5.6
2023-05-01T12:01:43.163Z,5.6
2023-05-01T12:02:51.539Z,5.6
2023-05-01T12:04:00.138Z,5
2023-05-01T12:05:08.445Z,5
2023-05-01T12:06:16.756Z,5
2023-05-01T12:07:25.381Z,5.2
2023-05-01T12:08:33.790Z,5.2
2023-05-01T12:09:42.123Z,5.2
2023-05-01T12:10:50.678Z,4.5
2023-05-01T12:11:59.072Z,4.5
2023-05-01T12:13:07.391Z,4.5
2023-05-01T12:14:16.006Z,4.6
2023-05-01T12:15:24.361Z,4.6
2023-05-01T12:16:32.762Z,4.6
2023-05-01T12:17:41.296Z,5.5
2023-05-01T12:18:49.639Z,5.5
2023-05-01T12:19:58.014Z,5.5
2023-05-01T12:21:06.531Z,4.6
2023-05-01T12:22:14.895Z,4.6
2023-05-01T12:23:23.250Z,4.6
2023-05-01T12:24:31.971Z,4.5
2023-05-01T12:25:40.218Z,4.5
2023-05-01T12:26:48.568Z,4.5
2023-05-01T12:27:57.126Z,5.5
2023-05-01T12:29:05.521Z,5.5
2023-05-01T12:30:13.886Z,5.5
2023-05-01T12:31:22.485Z,4.3
2023-05-01T12:32:30.824Z,4.3
2023-05-01T12:33:39.182Z,4.3
2023-05-01T12:34:47.739Z,4.6
2023-05-01T12:35:56.107Z,4.6
2023-05-01T12:37:05.383Z,4.6
2023-05-01T12:38:13.027Z,4.6
2023-05-01T12:39:21.379Z,4.6
2023-05-01T12:40:29.751Z,4.6
2023-05-01T12:41:38.300Z,3.9
2023-05-01T12:42:46.634Z,3.9
2023-05-01T12:43:54.994Z,3.9
2023-05-01T12:45:03.544Z,4.6
2023-05-01T12:46:11.950Z,4.6
2023-05-01T12:47:20.256Z,4.6
2023-05-01T12:48:28.839Z,4.5
2023-05-01T12:49:37.228Z,4.5
2023-05-01T12:50:47.313Z,4.5
2023-05-01T12:51:54.072Z,4.4
2023-05-01T12:53:02.414Z,4.4
2023-05-01T12:54:10.784Z,4.4
2023-05-01T12:55:19.374Z,4.8
2023-05-01T12:56:27.745Z,4.8
2023-05-01T12:57:36.077Z,4.8
2023-05-01T12:58:44.685Z,4.4
2023-05-01T12:59:53.017Z,4.4
2023-05-01T13:01:01.377Z,4.4
2023-05-01T13:02:09.961Z,4.9
2023-05-01T13:03:18.358Z,4.9
2023-05-01T13:04:26.717Z,4.9
2023-05-01T13:05:35.182Z,4.7
2023-05-01T13:06:43.622Z,4.7
2023-05-01T13:07:51.850Z,4.7
2023-05-01T13:09:00.494Z,4.1
2023-05-01T13:10:08.829Z,4.1
2023-05-01T13:11:17.151Z,4.1
2023-05-01T13:12:25.735Z,4.8
2023-05-01T13:13:34.080Z,4.8
2023-05-01T13:14:42.429Z,4.8
2023-05-01T13:15:51.026Z,4.1
2023-05-01T13:16:59.365Z,4.1
2023-05-01T13:18:07.810Z,4.1
2023-05-01T13:19:16.301Z,4.3
2023-05-01T13:20:24.647Z,4.3
2023-05-01T13:21:32.978Z,4.3
2023-05-01T13:22:41.542Z,4.4
2023-05-01T13:23:49.954Z,4.4
2023-05-01T13:24:58.334Z,4.4
2023-05-01T13:26:06.881Z,4
2023-05-01T13:27:15.206Z,4
2023-05-01T13:28:23.744Z,4
2023-05-01T13:29:32.143Z,4.1
2023-05-01T13:30:40.518Z,4.1
2023-05-01T13:31:48.892Z,4.1
2023-05-01T13:32:57.424Z,3.8
2023-05-01T13:34:05.796Z,3.8
2023-05-01T13:35:14.143Z,3.8
2023-05-01T13:36:26.195Z,4.1
2023-05-01T13:37:31.075Z,4.1
2023-05-01T13:38:39.462Z,4.1
2023-05-01T13:39:48.025Z,4.3
2023-05-01T13:40:56.375Z,4.3
2023-05-01T13:42:04.732Z,4.3
2023-05-01T13:43:13.292Z,4
2023-05-01T13:44:21.695Z,4
2023-05-01T13:45:30.055Z,4
2023-05-01T13:46:38.599Z,3.9
2023-05-01T13:47:46.983Z,3.9
2023-05-01T13:48:55.303Z,3.9
2023-05-01T13:50:03.890Z,4.4
2023-05-01T13:51:12.256Z,4.4
2023-05-01T13:52:21.232Z,4.4
2023-05-01T13:53:29.825Z,4.6
2023-05-01T13:54:38.179Z,4.6
2023-05-01T13:55:46.562Z,4.6
2023-05-01T13:56:55.110Z,4.5
2023-05-01T13:58:03.557Z,4.5
2023-05-01T13:59:11.925Z,4.5
2023-05-01T14:00:20.513Z,4.4
2023-05-01T14:01:28.885Z,4.4
2023-05-01T14:02:37.251Z,4.4
2023-05-01T14:03:45.789Z,5.1
2023-05-01T14:04:54.108Z,5.1
2023-05-01T14:06:02.492Z,5.1
2023-05-01T14:07:11.045Z,4.3
2023-05-01T14:08:19.387Z,4.3
2023-05-01T14:09:27.749Z,4.3
2023-05-01T14:10:36.300Z,4.2
2023-05-01T14:11:44.652Z,4.2
2023-05-01T14:12:52.990Z,4.2
2023-05-01T14:14:01.567Z,4.4
2023-05-01T14:15:09.918Z,4.4
2023-05-01T14:16:18.300Z,4.4
2023-05-01T14:17:26.836Z,4.6
2023-05-01T14:18:35.216Z,4.6
2023-05-01T14:19:43.555Z,4.6
2023-05-01T14:20:52.105Z,3.9
2023-05-01T14:22:00.444Z,3.9
2023-05-01T14:23:08.792Z,3.9
2023-05-01T14:24:17.343Z,4.2
2023-05-01T14:25:25.695Z,4.2
2023-05-01T14:26:35.837Z,4.2
2023-05-01T14:27:42.597Z,4.9
2023-05-01T14:28:50.969Z,4.9
2023-05-01T14:29:59.337Z,4.9
2023-05-01T14:31:07.879Z,4.6
2023-05-01T14:32:16.290Z,4.6
2023-05-01T14:33:24.578Z,4.6
2023-05-01T14:34:33.139Z,4.3
2023-05-01T14:35:41.487Z,4.3
2023-05-01T14:36:49.846Z,4.3
2023-05-01T14:37:58.411Z,4.4
2023-05-01T14:39:06.770Z,4.4
2023-05-01T14:40:15.123Z,4.4
2023-05-01T14:41:23.687Z,4.7
2023-05-01T14:42:32.033Z,4.7
2023-05-01T14:43:40.407Z,4.7
2023-05-01T14:44:48.975Z,3.6
2023-05-01T14:45:57.363Z,3.6
2023-05-01T14:47:05.687Z,3.6
2023-05-01T14:48:14.320Z,5.1
2023-05-01T14:49:22.627Z,5.1
2023-05-01T14:50:30.984Z,5.1
2023-05-01T14:51:39.525Z,3.8
2023-05-01T14:52:47.905Z,3.8
2023-05-01T14:53:56.312Z,3.8
2023-05-01T14:55:04.824Z,4.2
2023-05-01T14:56:13.158Z,4.2
2023-05-01T14:57:21.550Z,4.2
2023-05-01T14:58:30.132Z,4.4
2023-05-01T14:59:38.490Z,4.4
2023-05-01T15:00:46.847Z,4.4
2023-05-01T15:01:55.514Z,4.4
2023-05-01T15:03:03.909Z,4.4
2023-05-01T15:04:12.330Z,4.4
2023-05-01T15:05:20.764Z,5.1